Terminal Aerodrome Forecast
Issued by NWS

Current Version | Previous Version | Graphics & Text | Print | Product List | Glossary On
Versions: 1 2 3 4 5 6 7 8 9 10 11 12 13 14 15 16 17 18 19 20 21 22 23 24 25 26 27 28 29
000
FTUS41 KILN 220400 AAD
TAFLUK
TAF AMD
KLUK 220420Z 2204/2224 21005KT P6SM -TSRA BKN040CB OVC250
      TEMPO 2205/2208 34020G30KT 2SM -TSRA OVC025CB
     FM220800 21005KT P6SM VCSH BKN035 OVC200
      TEMPO 2208/2212 3SM BR
     FM221500 25008KT P6SM -SHRA VCTS BKN035CB OVC150
     FM222000 27007KT P6SM BKN040=

USA.gov is the U.S. government's official web portal to all federal, state and local government web resources and services.